Aeroporto :
LOGIN :

Iscrizione | Disclaimer

   EN    FR    IT 

 










Sommario :    VFR   VFR Marginale   IFR   IFR Intensivo   IFR Molto Intensivo
Visibilità : 
Base nubi : 
>= 8 km
>= 3000ft
5 / 8 km
1000 / 3000 ft
1500m / 5 km
500 / 1000 ft
800 / 1500m
200 / 500 ft
< 800m
< 200 ft
Simboli :   Temporali  Nebbia  Neve Forte  Precipitazioni Forti  Vento > 20 kt
SIGMETs :   Varie  Temporali  Ghiacco  Turbolenza  Onda orograficha  Ceneri Vulcaniche






- Altitudine del aeroporto : 1649 ft
- Codice IATA : HHN


EDFH - Frankfurt-Hahn Rhineland-Palatinate

ULTIMO METAR :
  • 220850Z 23007KT 190V260 9999 BKN013 15/13 Q1014

METARs OBSOLETI :
  • 220820Z 23007KT 200V260 6000 BKN010 14/13 Q1014
  • 220750Z 23007KT 200V260 9999 BKN012 15/13 Q1014
  • 220720Z 23007KT 190V270 9999 BKN012 15/13 Q1014
  • 220650Z 18004KT 150V220 7000 BKN010 14/13 Q1014
  • 220620Z 16005KT 7000 BKN010 14/13 Q1014
  • 220550Z 16004KT 130V200 7000 BKN011 14/13 Q1014
  • 220520Z 21005KT 140V240 8000 BKN013 14/13 Q1014
  • 220450Z 21008KT 9999 FEW010 BKN040 13/13 Q1014
  • 220420Z 20008KT 9999 SCT037 13/12 Q1014
  • 220350Z 19007KT 7000 FEW044 12/11 Q1014

TAF TAF EDFH
Valido dal 22 a 06 ore il 23 a 06 ore UTC


220500Z 2206/2306 23008KT 9999 BKN035
TEMPO 2206/2214 4000 SHRA BKN008 BKN020CB
BECMG 2218/2221 25003KT
TEMPO 2300/2306 2500 BR BKN004
PROB30
TEMPO 2302/2306 0400 FG BKN001



MetMap, La meteo Aeronautica in un colpo d'occhio ! - Copyright ORBIFLY Dicembre 2007 - Disclaimer

ORBIFLY MET'MAP TEAM :

Programmazione e sviluppo : Alexandra Zaïnal
Concezione : Baudouin d'Aumeries
Supporto tecnico e logistico : Manuel Goepfert
Aiuto : Marc-Olivier Méhu
Aiuto per la traduzione : Arnaldo La Scala




FONTI E CREDITI :

   NOAA